This is the latest recevied weather packets stored in our database for station/object IU1OLT-7. If no packets are shown the sender has not sent any weather packets the latest 10 day(s).
| Time | Temp. | Humidity | Pressure | Rain* | Wind** | Luminosity | Snow |
|---|---|---|---|---|---|---|---|
| 1787616525 | 17.78° C | 72% | 1018.7 hPa | - | - | - | - |
| 1787615619 | 17.22° C | 68% | 1018.7 hPa | - | - | - | - |
| 1787614719 | 15.56° C | 66% | 1018.4 hPa | - | - | - | - |
| 1787613819 | 18.89° C | 50% | 1019.8 hPa | - | - | - | - |
| 1787612919 | 19.44° C | 53% | 1020 hPa | - | - | - | - |
| 1787612019 | 21.11° C | 50% | 1019.8 hPa | - | - | - | - |
| 1787611119 | 21.67° C | 39% | 1019.7 hPa | - | - | - | - |
| 1787610219 | 23.33° C | 35% | 1019.3 hPa | - | - | - | - |
| 1787609319 | 21.67° C | 38% | 1019.6 hPa | - | - | - | - |
| 1787608419 | 25° C | 32% | 1019.6 hPa | - | - | - | - |
| 1787607519 | 23.89° C | 35% | 1019.3 hPa | - | - | - | - |
| 1787606619 | 25° C | 37% | 1019.4 hPa | - | - | - | - |
| 1787605719 | 25° C | 33% | 1019.1 hPa | - | - | - | - |
| 1787604819 | 23.33° C | 36% | 1019.5 hPa | - | - | - | - |
| 1787603919 | 21.11° C | 43% | 1019.7 hPa | - | - | - | - |
| 1787603019 | 21.67° C | 42% | 1020.1 hPa | - | - | - | - |
| 1787602119 | 22.22° C | 39% | 1020.2 hPa | - | - | - | - |
| 1787601219 | 21.67° C | 41% | 1020.1 hPa | - | - | - | - |
| 1787600319 | 22.78° C | 40% | 1020.5 hPa | - | - | - | - |
| 1787599419 | 21.11° C | 45% | 1020.6 hPa | - | - | - | - |
| 1787598519 | 21.67° C | 43% | 1020.8 hPa | - | - | - | - |
| 1787597619 | 21.67° C | 42% | 1021 hPa | - | - | - | - |
| 1787596719 | 22.78° C | 38% | 1021.1 hPa | - | - | - | - |
| 1787595819 | 22.78° C | 38% | 1020.9 hPa | - | - | - | - |
| 1787594919 | 22.22° C | 35% | 1020.9 hPa | - | - | - | - |
* Rain since midnight (hover to see other rain measurements)
** Current wind speed in m/s (hover to see current wind gust speed)